sensor_id;sensor_type;location;lat;lon;timestamp;temperature;humidity
64501;DHT22;50874;24.150;-110.320;2022-07-21T00:00:51;40.00;56.80
64501;DHT22;50874;24.150;-110.320;2022-07-21T00:03:18;40.00;56.70
64501;DHT22;50874;24.150;-110.320;2022-07-21T00:05:44;40.00;56.90
64501;DHT22;50874;24.150;-110.320;2022-07-21T00:08:11;40.00;56.80
64501;DHT22;50874;24.150;-110.320;2022-07-21T00:10:39;40.10;57.00
64501;DHT22;50874;24.150;-110.320;2022-07-21T00:13:05;39.90;57.30
64501;DHT22;50874;24.150;-110.320;2022-07-21T00:15:32;39.80;57.10
64501;DHT22;50874;24.150;-110.320;2022-07-21T00:17:59;39.70;56.90
64501;DHT22;50874;24.150;-110.320;2022-07-21T00:20:26;39.70;57.10
64501;DHT22;50874;24.150;-110.320;2022-07-21T00:22:56;39.60;57.00
64501;DHT22;50874;24.150;-110.320;2022-07-21T00:25:23;39.60;56.90
64501;DHT22;50874;24.150;-110.320;2022-07-21T00:27:49;39.60;57.30
64501;DHT22;50874;24.150;-110.320;2022-07-21T00:30:16;39.40;57.40
64501;DHT22;50874;24.150;-110.320;2022-07-21T00:32:43;39.40;57.70
64501;DHT22;50874;24.150;-110.320;2022-07-21T00:35:11;39.40;57.50
64501;DHT22;50874;24.150;-110.320;2022-07-21T00:37:39;39.40;57.80
64501;DHT22;50874;24.150;-110.320;2022-07-21T00:40:07;39.40;57.60
64501;DHT22;50874;24.150;-110.320;2022-07-21T00:42:35;39.20;57.90
64501;DHT22;50874;24.150;-110.320;2022-07-21T00:45:02;39.00;57.90
64501;DHT22;50874;24.150;-110.320;2022-07-21T00:47:31;38.70;58.30
64501;DHT22;50874;24.150;-110.320;2022-07-21T00:50:00;38.70;59.00
64501;DHT22;50874;24.150;-110.320;2022-07-21T00:52:26;38.60;59.90
64501;DHT22;50874;24.150;-110.320;2022-07-21T00:54:53;38.40;61.40
64501;DHT22;50874;24.150;-110.320;2022-07-21T00:57:19;38.20;61.80
64501;DHT22;50874;24.150;-110.320;2022-07-21T00:59:46;38.10;62.70
64501;DHT22;50874;24.150;-110.320;2022-07-21T01:02:13;38.30;61.60
64501;DHT22;50874;24.150;-110.320;2022-07-21T01:04:40;38.30;61.80
64501;DHT22;50874;24.150;-110.320;2022-07-21T01:07:07;38.10;62.00
64501;DHT22;50874;24.150;-110.320;2022-07-21T01:09:34;38.10;62.40
64501;DHT22;50874;24.150;-110.320;2022-07-21T01:12:02;38.00;62.70
64501;DHT22;50874;24.150;-110.320;2022-07-21T01:14:29;37.90;63.00
64501;DHT22;50874;24.150;-110.320;2022-07-21T01:16:55;37.70;63.40
64501;DHT22;50874;24.150;-110.320;2022-07-21T01:19:22;37.50;63.60
64501;DHT22;50874;24.150;-110.320;2022-07-21T01:21:49;37.60;63.60
64501;DHT22;50874;24.150;-110.320;2022-07-21T01:24:17;37.60;63.50
64501;DHT22;50874;24.150;-110.320;2022-07-21T01:26:46;37.40;63.80
64501;DHT22;50874;24.150;-110.320;2022-07-21T01:29:13;37.40;63.80
64501;DHT22;50874;24.150;-110.320;2022-07-21T01:31:41;37.30;64.00
64501;DHT22;50874;24.150;-110.320;2022-07-21T01:34:08;37.00;64.60
64501;DHT22;50874;24.150;-110.320;2022-07-21T01:36:35;37.10;64.70
64501;DHT22;50874;24.150;-110.320;2022-07-21T01:39:03;36.80;65.10
64501;DHT22;50874;24.150;-110.320;2022-07-21T01:41:48;36.70;65.20
64501;DHT22;50874;24.150;-110.320;2022-07-21T01:44:15;36.50;65.70
64501;DHT22;50874;24.150;-110.320;2022-07-21T01:46:47;36.40;66.00
64501;DHT22;50874;24.150;-110.320;2022-07-21T01:49:16;36.20;66.70
64501;DHT22;50874;24.150;-110.320;2022-07-21T01:51:43;36.10;66.70
64501;DHT22;50874;24.150;-110.320;2022-07-21T01:54:11;36.00;66.90
64501;DHT22;50874;24.150;-110.320;2022-07-21T01:56:38;35.90;67.30
64501;DHT22;50874;24.150;-110.320;2022-07-21T01:59:05;35.80;67.10
64501;DHT22;50874;24.150;-110.320;2022-07-21T02:01:33;35.60;67.50
64501;DHT22;50874;24.150;-110.320;2022-07-21T02:04:01;35.60;67.60
64501;DHT22;50874;24.150;-110.320;2022-07-21T02:06:29;35.40;67.90
64501;DHT22;50874;24.150;-110.320;2022-07-21T02:08:56;35.30;68.00
64501;DHT22;50874;24.150;-110.320;2022-07-21T02:11:23;35.30;68.10
64501;DHT22;50874;24.150;-110.320;2022-07-21T02:13:49;35.30;68.00
64501;DHT22;50874;24.150;-110.320;2022-07-21T02:16:16;35.30;68.00
64501;DHT22;50874;24.150;-110.320;2022-07-21T02:18:44;35.20;67.90
64501;DHT22;50874;24.150;-110.320;2022-07-21T02:21:10;35.20;67.90
64501;DHT22;50874;24.150;-110.320;2022-07-21T02:23:37;35.20;67.80
64501;DHT22;50874;24.150;-110.320;2022-07-21T02:26:03;35.10;68.00
64501;DHT22;50874;24.150;-110.320;2022-07-21T02:28:30;35.00;68.00
64501;DHT22;50874;24.150;-110.320;2022-07-21T02:30:56;34.80;68.30
64501;DHT22;50874;24.150;-110.320;2022-07-21T02:33:23;34.80;68.60
64501;DHT22;50874;24.150;-110.320;2022-07-21T02:35:49;34.70;68.50
64501;DHT22;50874;24.150;-110.320;2022-07-21T02:38:16;34.70;68.70
64501;DHT22;50874;24.150;-110.320;2022-07-21T02:40:42;34.50;68.90
64501;DHT22;50874;24.150;-110.320;2022-07-21T02:43:09;34.40;69.20
64501;DHT22;50874;24.150;-110.320;2022-07-21T02:45:35;34.30;69.50
64501;DHT22;50874;24.150;-110.320;2022-07-21T02:48:09;34.20;69.80
64501;DHT22;50874;24.150;-110.320;2022-07-21T02:50:37;34.10;70.10
64501;DHT22;50874;24.150;-110.320;2022-07-21T02:53:07;34.00;70.40
64501;DHT22;50874;24.150;-110.320;2022-07-21T02:55:34;34.00;70.50
64501;DHT22;50874;24.150;-110.320;2022-07-21T02:58:06;34.00;70.50
64501;DHT22;50874;24.150;-110.320;2022-07-21T03:00:34;34.00;70.40
64501;DHT22;50874;24.150;-110.320;2022-07-21T03:03:01;34.20;70.20
64501;DHT22;50874;24.150;-110.320;2022-07-21T03:05:27;34.10;70.30
64501;DHT22;50874;24.150;-110.320;2022-07-21T03:07:54;34.10;70.60
64501;DHT22;50874;24.150;-110.320;2022-07-21T03:10:20;34.00;70.60
64501;DHT22;50874;24.150;-110.320;2022-07-21T03:12:47;34.00;70.60
64501;DHT22;50874;24.150;-110.320;2022-07-21T03:15:13;34.00;70.70
64501;DHT22;50874;24.150;-110.320;2022-07-21T03:17:40;33.90;70.90
64501;DHT22;50874;24.150;-110.320;2022-07-21T03:20:06;33.90;71.00
64501;DHT22;50874;24.150;-110.320;2022-07-21T03:22:33;33.80;71.00
64501;DHT22;50874;24.150;-110.320;2022-07-21T03:25:00;33.90;71.30
64501;DHT22;50874;24.150;-110.320;2022-07-21T03:27:26;33.80;71.40
64501;DHT22;50874;24.150;-110.320;2022-07-21T03:29:53;33.80;71.30
64501;DHT22;50874;24.150;-110.320;2022-07-21T03:32:19;33.80;71.60
64501;DHT22;50874;24.150;-110.320;2022-07-21T03:34:45;33.60;72.00
64501;DHT22;50874;24.150;-110.320;2022-07-21T03:37:12;33.50;72.50
64501;DHT22;50874;24.150;-110.320;2022-07-21T03:39:39;33.40;73.00
64501;DHT22;50874;24.150;-110.320;2022-07-21T03:42:05;33.40;72.70
64501;DHT22;50874;24.150;-110.320;2022-07-21T03:44:32;33.60;72.60
64501;DHT22;50874;24.150;-110.320;2022-07-21T03:46:58;33.60;72.50
64501;DHT22;50874;24.150;-110.320;2022-07-21T03:49:25;33.60;72.20
64501;DHT22;50874;24.150;-110.320;2022-07-21T03:51:51;33.60;72.40
64501;DHT22;50874;24.150;-110.320;2022-07-21T03:54:18;33.50;72.90
64501;DHT22;50874;24.150;-110.320;2022-07-21T03:56:44;33.50;72.90
64501;DHT22;50874;24.150;-110.320;2022-07-21T03:59:11;33.40;73.00
64501;DHT22;50874;24.150;-110.320;2022-07-21T04:01:37;33.40;73.00
64501;DHT22;50874;24.150;-110.320;2022-07-21T04:04:04;33.30;73.10
64501;DHT22;50874;24.150;-110.320;2022-07-21T04:06:30;33.30;73.30
64501;DHT22;50874;24.150;-110.320;2022-07-21T04:08:57;33.20;73.30
64501;DHT22;50874;24.150;-110.320;2022-07-21T04:11:23;33.30;73.40
64501;DHT22;50874;24.150;-110.320;2022-07-21T04:13:50;33.20;73.50
64501;DHT22;50874;24.150;-110.320;2022-07-21T04:16:16;33.20;73.60
64501;DHT22;50874;24.150;-110.320;2022-07-21T04:18:42;33.10;73.70
64501;DHT22;50874;24.150;-110.320;2022-07-21T04:21:09;33.10;73.70
64501;DHT22;50874;24.150;-110.320;2022-07-21T04:23:35;33.10;73.90
64501;DHT22;50874;24.150;-110.320;2022-07-21T04:26:02;33.00;73.90
64501;DHT22;50874;24.150;-110.320;2022-07-21T04:28:28;33.00;74.10
64501;DHT22;50874;24.150;-110.320;2022-07-21T04:30:55;33.00;74.30
64501;DHT22;50874;24.150;-110.320;2022-07-21T04:33:21;32.90;74.30
64501;DHT22;50874;24.150;-110.320;2022-07-21T04:35:48;32.90;74.50
64501;DHT22;50874;24.150;-110.320;2022-07-21T04:38:14;32.80;74.70
64501;DHT22;50874;24.150;-110.320;2022-07-21T04:40:41;32.70;75.10
64501;DHT22;50874;24.150;-110.320;2022-07-21T04:43:07;32.60;75.30
64501;DHT22;50874;24.150;-110.320;2022-07-21T04:45:34;32.60;75.50
64501;DHT22;50874;24.150;-110.320;2022-07-21T04:48:00;32.60;75.80
64501;DHT22;50874;24.150;-110.320;2022-07-21T04:50:28;32.40;76.10
64501;DHT22;50874;24.150;-110.320;2022-07-21T04:52:55;32.30;76.60
64501;DHT22;50874;24.150;-110.320;2022-07-21T04:55:22;32.10;77.00
64501;DHT22;50874;24.150;-110.320;2022-07-21T04:57:51;32.10;77.30
64501;DHT22;50874;24.150;-110.320;2022-07-21T05:00:20;32.00;77.50
64501;DHT22;50874;24.150;-110.320;2022-07-21T05:02:47;32.00;77.70
64501;DHT22;50874;24.150;-110.320;2022-07-21T05:05:14;31.90;78.10
64501;DHT22;50874;24.150;-110.320;2022-07-21T05:07:40;31.90;78.40
64501;DHT22;50874;24.150;-110.320;2022-07-21T05:10:09;31.90;78.50
64501;DHT22;50874;24.150;-110.320;2022-07-21T05:12:37;31.80;78.80
64501;DHT22;50874;24.150;-110.320;2022-07-21T05:15:06;31.70;79.10
64501;DHT22;50874;24.150;-110.320;2022-07-21T05:17:33;31.60;79.60
64501;DHT22;50874;24.150;-110.320;2022-07-21T05:20:00;31.50;79.90
64501;DHT22;50874;24.150;-110.320;2022-07-21T05:22:27;31.50;80.20
64501;DHT22;50874;24.150;-110.320;2022-07-21T05:24:53;31.40;80.30
64501;DHT22;50874;24.150;-110.320;2022-07-21T05:27:20;31.40;80.50
64501;DHT22;50874;24.150;-110.320;2022-07-21T05:29:46;31.40;80.70
64501;DHT22;50874;24.150;-110.320;2022-07-21T05:32:13;31.20;81.00
64501;DHT22;50874;24.150;-110.320;2022-07-21T05:34:39;31.20;81.20
64501;DHT22;50874;24.150;-110.320;2022-07-21T05:37:06;31.20;81.40
64501;DHT22;50874;24.150;-110.320;2022-07-21T05:39:32;31.20;81.50
64501;DHT22;50874;24.150;-110.320;2022-07-21T05:41:59;31.20;81.70
64501;DHT22;50874;24.150;-110.320;2022-07-21T05:44:25;31.20;81.80
64501;DHT22;50874;24.150;-110.320;2022-07-21T05:46:52;31.20;82.00
64501;DHT22;50874;24.150;-110.320;2022-07-21T05:49:18;31.20;82.00
64501;DHT22;50874;24.150;-110.320;2022-07-21T05:51:45;31.10;82.30
64501;DHT22;50874;24.150;-110.320;2022-07-21T05:54:11;31.10;82.70
64501;DHT22;50874;24.150;-110.320;2022-07-21T05:56:37;31.00;83.00
64501;DHT22;50874;24.150;-110.320;2022-07-21T05:59:04;30.90;83.70
64501;DHT22;50874;24.150;-110.320;2022-07-21T06:01:30;30.80;84.50
64501;DHT22;50874;24.150;-110.320;2022-07-21T06:03:57;30.70;84.90
64501;DHT22;50874;24.150;-110.320;2022-07-21T06:06:23;30.70;85.40
64501;DHT22;50874;24.150;-110.320;2022-07-21T06:08:50;30.60;85.60
64501;DHT22;50874;24.150;-110.320;2022-07-21T06:11:19;30.60;85.80
64501;DHT22;50874;24.150;-110.320;2022-07-21T06:13:47;30.60;86.20
64501;DHT22;50874;24.150;-110.320;2022-07-21T06:16:14;30.50;87.20
64501;DHT22;50874;24.150;-110.320;2022-07-21T06:18:40;30.50;87.60
64501;DHT22;50874;24.150;-110.320;2022-07-21T06:21:07;30.40;88.00
64501;DHT22;50874;24.150;-110.320;2022-07-21T06:23:33;30.40;88.50
64501;DHT22;50874;24.150;-110.320;2022-07-21T06:26:00;30.30;88.80
64501;DHT22;50874;24.150;-110.320;2022-07-21T06:28:26;30.20;89.20
64501;DHT22;50874;24.150;-110.320;2022-07-21T06:30:53;30.20;89.40
64501;DHT22;50874;24.150;-110.320;2022-07-21T06:33:20;30.20;89.70
64501;DHT22;50874;24.150;-110.320;2022-07-21T06:35:47;30.10;90.00
64501;DHT22;50874;24.150;-110.320;2022-07-21T06:38:13;30.10;90.20
64501;DHT22;50874;24.150;-110.320;2022-07-21T06:40:40;30.00;90.40
64501;DHT22;50874;24.150;-110.320;2022-07-21T06:43:07;29.90;90.60
64501;DHT22;50874;24.150;-110.320;2022-07-21T06:45:33;29.90;90.80
64501;DHT22;50874;24.150;-110.320;2022-07-21T06:48:02;29.80;90.90
64501;DHT22;50874;24.150;-110.320;2022-07-21T06:50:28;29.80;91.00
64501;DHT22;50874;24.150;-110.320;2022-07-21T06:52:54;29.80;91.00
64501;DHT22;50874;24.150;-110.320;2022-07-21T06:55:21;29.80;91.00
64501;DHT22;50874;24.150;-110.320;2022-07-21T06:57:48;29.80;91.10
64501;DHT22;50874;24.150;-110.320;2022-07-21T07:00:14;29.70;91.10
64501;DHT22;50874;24.150;-110.320;2022-07-21T07:02:41;29.70;91.40
64501;DHT22;50874;24.150;-110.320;2022-07-21T07:05:08;29.70;91.50
64501;DHT22;50874;24.150;-110.320;2022-07-21T07:07:34;29.70;91.60
64501;DHT22;50874;24.150;-110.320;2022-07-21T07:10:01;29.70;91.70
64501;DHT22;50874;24.150;-110.320;2022-07-21T07:12:28;29.60;91.80
64501;DHT22;50874;24.150;-110.320;2022-07-21T07:14:55;29.60;92.00
64501;DHT22;50874;24.150;-110.320;2022-07-21T07:17:21;29.60;92.10
64501;DHT22;50874;24.150;-110.320;2022-07-21T07:19:48;29.50;92.20
64501;DHT22;50874;24.150;-110.320;2022-07-21T07:22:14;29.50;92.40
64501;DHT22;50874;24.150;-110.320;2022-07-21T07:24:41;29.50;92.60
64501;DHT22;50874;24.150;-110.320;2022-07-21T07:27:08;29.40;92.70
64501;DHT22;50874;24.150;-110.320;2022-07-21T07:29:34;29.40;92.90
64501;DHT22;50874;24.150;-110.320;2022-07-21T07:32:01;29.40;93.10
64501;DHT22;50874;24.150;-110.320;2022-07-21T07:34:27;29.40;93.40
64501;DHT22;50874;24.150;-110.320;2022-07-21T07:36:54;29.40;93.60
64501;DHT22;50874;24.150;-110.320;2022-07-21T07:39:20;29.30;94.00
64501;DHT22;50874;24.150;-110.320;2022-07-21T07:41:46;29.20;94.20
64501;DHT22;50874;24.150;-110.320;2022-07-21T07:44:13;29.20;94.50
64501;DHT22;50874;24.150;-110.320;2022-07-21T07:46:39;29.10;94.80
64501;DHT22;50874;24.150;-110.320;2022-07-21T07:49:06;29.10;95.10
64501;DHT22;50874;24.150;-110.320;2022-07-21T07:51:32;29.00;95.30
64501;DHT22;50874;24.150;-110.320;2022-07-21T07:53:59;28.80;95.50
64501;DHT22;50874;24.150;-110.320;2022-07-21T07:56:28;28.80;95.90
64501;DHT22;50874;24.150;-110.320;2022-07-21T07:58:54;28.70;96.10
64501;DHT22;50874;24.150;-110.320;2022-07-21T08:01:21;28.70;96.30
64501;DHT22;50874;24.150;-110.320;2022-07-21T08:03:47;28.70;96.40
64501;DHT22;50874;24.150;-110.320;2022-07-21T08:06:14;28.50;96.60
64501;DHT22;50874;24.150;-110.320;2022-07-21T08:08:40;28.50;96.80
64501;DHT22;50874;24.150;-110.320;2022-07-21T08:11:06;28.40;97.00
64501;DHT22;50874;24.150;-110.320;2022-07-21T08:13:33;28.30;97.30
64501;DHT22;50874;24.150;-110.320;2022-07-21T08:16:00;28.30;97.50
64501;DHT22;50874;24.150;-110.320;2022-07-21T08:18:27;28.30;97.80
64501;DHT22;50874;24.150;-110.320;2022-07-21T08:20:53;28.30;98.00
64501;DHT22;50874;24.150;-110.320;2022-07-21T08:23:20;28.20;98.20
64501;DHT22;50874;24.150;-110.320;2022-07-21T08:25:46;28.20;98.40
64501;DHT22;50874;24.150;-110.320;2022-07-21T08:28:13;28.20;99.10
64501;DHT22;50874;24.150;-110.320;2022-07-21T08:30:39;28.20;99.20
64501;DHT22;50874;24.150;-110.320;2022-07-21T08:33:06;28.10;99.70
64501;DHT22;50874;24.150;-110.320;2022-07-21T08:35:33;28.10;99.90
64501;DHT22;50874;24.150;-110.320;2022-07-21T08:38:08;28.10;99.90
64501;DHT22;50874;24.150;-110.320;2022-07-21T08:40:41;28.10;99.90
64501;DHT22;50874;24.150;-110.320;2022-07-21T08:43:08;28.00;99.90
64501;DHT22;50874;24.150;-110.320;2022-07-21T08:45:37;28.00;99.90
64501;DHT22;50874;24.150;-110.320;2022-07-21T08:48:04;28.00;99.90
64501;DHT22;50874;24.150;-110.320;2022-07-21T08:50:36;27.90;99.90
64501;DHT22;50874;24.150;-110.320;2022-07-21T08:53:03;28.00;99.90
64501;DHT22;50874;24.150;-110.320;2022-07-21T08:55:32;27.90;99.90
64501;DHT22;50874;24.150;-110.320;2022-07-21T08:57:59;27.90;99.90
64501;DHT22;50874;24.150;-110.320;2022-07-21T09:00:26;27.90;99.90
64501;DHT22;50874;24.150;-110.320;2022-07-21T09:05:52;27.80;99.90
64501;DHT22;50874;24.150;-110.320;2022-07-21T09:08:38;27.80;99.90
64501;DHT22;50874;24.150;-110.320;2022-07-21T09:13:35;27.80;99.90
64501;DHT22;50874;24.150;-110.320;2022-07-21T09:16:02;27.80;99.90
64501;DHT22;50874;24.150;-110.320;2022-07-21T09:18:28;27.80;99.90
64501;DHT22;50874;24.150;-110.320;2022-07-21T09:20:55;27.80;99.90
64501;DHT22;50874;24.150;-110.320;2022-07-21T09:23:24;27.80;99.90
64501;DHT22;50874;24.150;-110.320;2022-07-21T09:25:53;27.80;99.90
64501;DHT22;50874;24.150;-110.320;2022-07-21T09:28:22;27.80;99.90
64501;DHT22;50874;24.150;-110.320;2022-07-21T09:33:25;27.80;99.90
64501;DHT22;50874;24.150;-110.320;2022-07-21T09:35:58;27.80;99.90
64501;DHT22;50874;24.150;-110.320;2022-07-21T09:38:26;27.80;99.90
64501;DHT22;50874;24.150;-110.320;2022-07-21T09:40:53;27.80;99.90
64501;DHT22;50874;24.150;-110.320;2022-07-21T09:43:33;27.70;99.90
64501;DHT22;50874;24.150;-110.320;2022-07-21T09:46:02;27.70;99.90
64501;DHT22;50874;24.150;-110.320;2022-07-21T09:48:37;27.70;99.90
64501;DHT22;50874;24.150;-110.320;2022-07-21T09:51:33;27.80;99.90
64501;DHT22;50874;24.150;-110.320;2022-07-21T09:54:08;27.80;99.90
64501;DHT22;50874;24.150;-110.320;2022-07-21T09:56:41;27.70;99.90
64501;DHT22;50874;24.150;-110.320;2022-07-21T09:59:09;27.70;99.90
64501;DHT22;50874;24.150;-110.320;2022-07-21T10:01:37;27.70;99.90
64501;DHT22;50874;24.150;-110.320;2022-07-21T10:04:04;27.70;99.90
64501;DHT22;50874;24.150;-110.320;2022-07-21T10:06:33;27.70;99.90
64501;DHT22;50874;24.150;-110.320;2022-07-21T10:09:01;27.60;99.90
64501;DHT22;50874;24.150;-110.320;2022-07-21T10:11:28;27.60;99.90
64501;DHT22;50874;24.150;-110.320;2022-07-21T10:13:55;27.60;99.70
64501;DHT22;50874;24.150;-110.320;2022-07-21T10:16:21;27.70;99.40
64501;DHT22;50874;24.150;-110.320;2022-07-21T10:22:18;27.70;98.50
64501;DHT22;50874;24.150;-110.320;2022-07-21T10:24:47;27.60;98.40
64501;DHT22;50874;24.150;-110.320;2022-07-21T10:27:15;27.70;98.30
64501;DHT22;50874;24.150;-110.320;2022-07-21T10:32:24;27.70;98.00
64501;DHT22;50874;24.150;-110.320;2022-07-21T10:34:54;27.70;97.90
64501;DHT22;50874;24.150;-110.320;2022-07-21T10:40:21;27.70;98.10
64501;DHT22;50874;24.150;-110.320;2022-07-21T10:45:36;27.60;98.60
64501;DHT22;50874;24.150;-110.320;2022-07-21T10:48:05;27.60;98.70
64501;DHT22;50874;24.150;-110.320;2022-07-21T10:53:14;27.60;98.90
64501;DHT22;50874;24.150;-110.320;2022-07-21T10:55:49;27.50;98.90
64501;DHT22;50874;24.150;-110.320;2022-07-21T11:01:01;27.50;99.20
64501;DHT22;50874;24.150;-110.320;2022-07-21T11:06:17;27.40;99.20
64501;DHT22;50874;24.150;-110.320;2022-07-21T11:09:06;27.40;99.30
64501;DHT22;50874;24.150;-110.320;2022-07-21T11:11:34;27.40;99.40
64501;DHT22;50874;24.150;-110.320;2022-07-21T11:19:32;27.30;99.30
64501;DHT22;50874;24.150;-110.320;2022-07-21T11:22:26;27.30;99.30
64501;DHT22;50874;24.150;-110.320;2022-07-21T11:24:57;27.30;99.10
64501;DHT22;50874;24.150;-110.320;2022-07-21T11:27:26;27.30;99.00
64501;DHT22;50874;24.150;-110.320;2022-07-21T11:29:55;27.30;98.90
64501;DHT22;50874;24.150;-110.320;2022-07-21T11:32:22;27.30;98.80
64501;DHT22;50874;24.150;-110.320;2022-07-21T11:34:58;27.30;98.80
64501;DHT22;50874;24.150;-110.320;2022-07-21T11:39:58;27.30;98.40
64501;DHT22;50874;24.150;-110.320;2022-07-21T11:42:27;27.30;98.40
64501;DHT22;50874;24.150;-110.320;2022-07-21T11:44:54;27.30;98.40
64501;DHT22;50874;24.150;-110.320;2022-07-21T11:47:20;27.30;98.10
64501;DHT22;50874;24.150;-110.320;2022-07-21T11:49:53;27.30;98.20
64501;DHT22;50874;24.150;-110.320;2022-07-21T11:52:31;27.30;98.00
64501;DHT22;50874;24.150;-110.320;2022-07-21T11:54:59;27.30;97.80
64501;DHT22;50874;24.150;-110.320;2022-07-21T11:57:27;27.30;97.60
64501;DHT22;50874;24.150;-110.320;2022-07-21T11:59:55;27.30;97.50
64501;DHT22;50874;24.150;-110.320;2022-07-21T12:02:24;27.30;97.60
64501;DHT22;50874;24.150;-110.320;2022-07-21T12:07:47;27.30;97.10
64501;DHT22;50874;24.150;-110.320;2022-07-21T12:10:25;27.40;96.80
64501;DHT22;50874;24.150;-110.320;2022-07-21T12:12:56;27.30;96.70
64501;DHT22;50874;24.150;-110.320;2022-07-21T12:15:25;27.30;97.20
64501;DHT22;50874;24.150;-110.320;2022-07-21T12:18:01;27.30;97.40
64501;DHT22;50874;24.150;-110.320;2022-07-21T12:20:33;27.20;97.50
64501;DHT22;50874;24.150;-110.320;2022-07-21T12:23:02;27.20;97.60
64501;DHT22;50874;24.150;-110.320;2022-07-21T12:25:37;27.10;97.70
64501;DHT22;50874;24.150;-110.320;2022-07-21T12:28:07;27.10;97.80
64501;DHT22;50874;24.150;-110.320;2022-07-21T12:30:49;27.10;97.80
64501;DHT22;50874;24.150;-110.320;2022-07-21T12:33:22;27.10;97.80
64501;DHT22;50874;24.150;-110.320;2022-07-21T12:36:00;27.10;98.00
64501;DHT22;50874;24.150;-110.320;2022-07-21T12:38:44;27.10;97.90
64501;DHT22;50874;24.150;-110.320;2022-07-21T12:41:14;27.10;97.80
64501;DHT22;50874;24.150;-110.320;2022-07-21T12:43:43;27.10;97.90
64501;DHT22;50874;24.150;-110.320;2022-07-21T12:46:12;27.10;98.00
64501;DHT22;50874;24.150;-110.320;2022-07-21T12:48:39;27.20;97.90
64501;DHT22;50874;24.150;-110.320;2022-07-21T12:53:51;27.20;97.80
64501;DHT22;50874;24.150;-110.320;2022-07-21T12:56:21;27.30;97.70
64501;DHT22;50874;24.150;-110.320;2022-07-21T12:58:49;27.30;97.50
64501;DHT22;50874;24.150;-110.320;2022-07-21T13:01:18;27.30;97.40
64501;DHT22;50874;24.150;-110.320;2022-07-21T13:03:45;27.40;97.10
64501;DHT22;50874;24.150;-110.320;2022-07-21T13:06:12;27.60;96.70
64501;DHT22;50874;24.150;-110.320;2022-07-21T13:08:44;27.80;96.40
64501;DHT22;50874;24.150;-110.320;2022-07-21T13:11:13;28.10;96.00
64501;DHT22;50874;24.150;-110.320;2022-07-21T13:13:40;28.20;95.60
64501;DHT22;50874;24.150;-110.320;2022-07-21T13:16:07;28.50;95.10
64501;DHT22;50874;24.150;-110.320;2022-07-21T13:18:34;28.60;94.80
64501;DHT22;50874;24.150;-110.320;2022-07-21T13:21:02;28.90;94.20
64501;DHT22;50874;24.150;-110.320;2022-07-21T13:23:28;29.00;93.70
64501;DHT22;50874;24.150;-110.320;2022-07-21T13:25:55;29.20;93.50
64501;DHT22;50874;24.150;-110.320;2022-07-21T13:28:21;29.30;93.00
64501;DHT22;50874;24.150;-110.320;2022-07-21T13:30:48;29.50;92.60
64501;DHT22;50874;24.150;-110.320;2022-07-21T13:33:15;29.70;92.30
64501;DHT22;50874;24.150;-110.320;2022-07-21T13:35:42;29.80;92.00
64501;DHT22;50874;24.150;-110.320;2022-07-21T13:38:09;30.00;91.60
64501;DHT22;50874;24.150;-110.320;2022-07-21T13:40:36;30.20;91.20
64501;DHT22;50874;24.150;-110.320;2022-07-21T13:43:04;30.30;90.90
64501;DHT22;50874;24.150;-110.320;2022-07-21T13:45:30;30.50;90.50
64501;DHT22;50874;24.150;-110.320;2022-07-21T13:47:57;30.70;89.80
64501;DHT22;50874;24.150;-110.320;2022-07-21T13:50:23;30.90;89.00
64501;DHT22;50874;24.150;-110.320;2022-07-21T13:52:50;31.10;87.80
64501;DHT22;50874;24.150;-110.320;2022-07-21T13:55:16;31.30;86.90
64501;DHT22;50874;24.150;-110.320;2022-07-21T13:57:43;31.60;85.80
64501;DHT22;50874;24.150;-110.320;2022-07-21T14:00:11;31.70;84.70
64501;DHT22;50874;24.150;-110.320;2022-07-21T14:02:37;31.90;84.50
64501;DHT22;50874;24.150;-110.320;2022-07-21T14:05:05;32.00;83.90
64501;DHT22;50874;24.150;-110.320;2022-07-21T14:07:31;32.00;83.30
64501;DHT22;50874;24.150;-110.320;2022-07-21T14:09:58;32.00;83.20
64501;DHT22;50874;24.150;-110.320;2022-07-21T14:12:24;32.20;83.00
64501;DHT22;50874;24.150;-110.320;2022-07-21T14:14:51;32.30;82.20
64501;DHT22;50874;24.150;-110.320;2022-07-21T14:17:17;32.40;81.90
64501;DHT22;50874;24.150;-110.320;2022-07-21T14:19:45;32.60;81.10
64501;DHT22;50874;24.150;-110.320;2022-07-21T14:22:14;32.60;80.60
64501;DHT22;50874;24.150;-110.320;2022-07-21T14:24:42;32.60;80.80
64501;DHT22;50874;24.150;-110.320;2022-07-21T14:27:27;32.70;80.40
64501;DHT22;50874;24.150;-110.320;2022-07-21T14:29:53;32.90;80.20
64501;DHT22;50874;24.150;-110.320;2022-07-21T14:32:20;33.00;79.50
64501;DHT22;50874;24.150;-110.320;2022-07-21T14:34:51;33.60;78.30
64501;DHT22;50874;24.150;-110.320;2022-07-21T14:37:18;33.70;77.40
64501;DHT22;50874;24.150;-110.320;2022-07-21T14:39:48;33.90;76.80
64501;DHT22;50874;24.150;-110.320;2022-07-21T14:42:16;34.00;76.10
64501;DHT22;50874;24.150;-110.320;2022-07-21T14:44:43;34.10;76.30
64501;DHT22;50874;24.150;-110.320;2022-07-21T14:47:09;34.50;75.60
64501;DHT22;50874;24.150;-110.320;2022-07-21T14:49:36;34.80;74.10
64501;DHT22;50874;24.150;-110.320;2022-07-21T14:52:04;34.90;74.20
64501;DHT22;50874;24.150;-110.320;2022-07-21T14:54:30;34.80;74.10
64501;DHT22;50874;24.150;-110.320;2022-07-21T14:56:57;34.70;74.40
64501;DHT22;50874;24.150;-110.320;2022-07-21T14:59:23;35.10;73.50
64501;DHT22;50874;24.150;-110.320;2022-07-21T15:01:50;35.30;73.00
64501;DHT22;50874;24.150;-110.320;2022-07-21T15:04:16;35.40;72.00
64501;DHT22;50874;24.150;-110.320;2022-07-21T15:06:43;35.20;71.60
64501;DHT22;50874;24.150;-110.320;2022-07-21T15:09:11;35.30;71.70
64501;DHT22;50874;24.150;-110.320;2022-07-21T15:11:38;35.40;71.20
64501;DHT22;50874;24.150;-110.320;2022-07-21T15:14:04;35.30;70.40
64501;DHT22;50874;24.150;-110.320;2022-07-21T15:16:31;35.40;69.90
64501;DHT22;50874;24.150;-110.320;2022-07-21T15:18:58;35.90;69.80
64501;DHT22;50874;24.150;-110.320;2022-07-21T15:21:24;36.00;68.40
64501;DHT22;50874;24.150;-110.320;2022-07-21T15:23:50;36.10;68.00
64501;DHT22;50874;24.150;-110.320;2022-07-21T15:26:17;36.20;66.90
64501;DHT22;50874;24.150;-110.320;2022-07-21T15:28:44;36.60;66.50
64501;DHT22;50874;24.150;-110.320;2022-07-21T15:31:10;36.70;65.00
64501;DHT22;50874;24.150;-110.320;2022-07-21T15:33:37;36.80;64.70